»·PEaware :: N9BR KIXD-KLBB

N9BR :: KIXD-KLBB

FLIGHT INFORMATION

Flight Status: Arrived
Operator: Privately registered:
United States
More flights under this callsign
Pilot: John H. (7647)
Aircraft: Unknown
(M20R)
More flights by this aircraft type
Origin: KIXD New Century Aircenter
United States
Destination: KLBB Lubbock Intl
United States
More flights between these airports :: More routes between these airports
Route: DODSN V12 PNH V81 ZONLO
File this flight plan on PilotEdge
Remarks:
Altitude:
(Current/Filed)
10,500ft
Speed:
(Current/Filed)
170kts
Departed: 21-Jul-18 02:20 PM
Arrived: 21-Jul-18 05:17 PM
Distance/Time
Traveled:
456nm/2:57
Distance/Time
To Go:
Arrived

Flight Plot

Page will automatically refresh every two minutes.

Flight plan parsing failed; only flown route is shown


Map Options




Map Legend


Flown Route
Filed Route
Departure Airport
Arrival Airport
Navaid (VOR, NDB)
Fix

Horizontal Profiles

Position Reports

Time Latitude Longitude Heading Altitude Ground
Speed
21-Jul-18 14:13 38.836193 -94.893630 89 1070ft 0kts
21-Jul-18 14:14 38.835853 -94.893141 180 1070ft 7kts
21-Jul-18 14:15 38.831647 -94.893137 182 1065ft 19kts
21-Jul-18 14:16 38.825317 -94.893325 180 1055ft 23kts
21-Jul-18 14:17 38.820102 -94.892723 91 1047ft 11kts
21-Jul-18 14:18 38.820566 -94.891589 0 1050ft 0kts
21-Jul-18 14:19 38.820566 -94.891589 0 1050ft 0kts
21-Jul-18 14:20 38.820566 -94.891589 0 1050ft 0kts
21-Jul-18 14:21 38.843032 -94.890752 5 1574ft 118kts
21-Jul-18 14:22 38.871900 -94.887645 15 3142ft 105kts
21-Jul-18 14:23 38.865233 -94.860234 190 4390ft 122kts
21-Jul-18 14:24 38.837563 -94.882336 228 5596ft 119kts
21-Jul-18 14:25 38.814474 -94.913129 232 6728ft 120kts
21-Jul-18 14:26 38.791806 -94.944637 232 7774ft 121kts
21-Jul-18 14:27 38.768889 -94.976537 231 8754ft 122kts
21-Jul-18 14:28 38.744898 -95.009914 236 9552ft 132kts
21-Jul-18 14:29 38.721678 -95.045651 254 10382ft 127kts
21-Jul-18 14:30 38.703859 -95.091601 251 10529ft 163kts
21-Jul-18 14:31 38.682528 -95.146461 250 10531ft 177kts
21-Jul-18 14:32 38.660303 -95.203614 251 10525ft 182kts
21-Jul-18 14:33 38.637726 -95.261564 250 10504ft 185kts
21-Jul-18 14:34 38.615072 -95.319605 250 10502ft 185kts
21-Jul-18 14:35 38.592095 -95.378368 251 10524ft 184kts
21-Jul-18 14:36 38.572965 -95.427176 250 10503ft 186kts
21-Jul-18 14:37 38.549796 -95.486067 251 10501ft 186kts
21-Jul-18 14:38 38.522920 -95.554404 250 10502ft 185kts
21-Jul-18 14:39 38.499759 -95.613193 251 10478ft 186kts
21-Jul-18 14:40 38.476803 -95.671342 250 10476ft 186kts
21-Jul-18 14:41 38.458064 -95.718730 250 10476ft 186kts
21-Jul-18 14:42 38.435679 -95.775243 250 10476ft 186kts
21-Jul-18 14:43 38.412218 -95.834376 250 10481ft 187kts
21-Jul-18 14:44 38.388911 -95.892985 250 10502ft 185kts
21-Jul-18 14:45 38.365912 -95.950728 250 10503ft 186kts
21-Jul-18 14:46 38.342559 -96.009248 250 10503ft 186kts
21-Jul-18 14:47 38.319014 -96.068132 250 10501ft 186kts
21-Jul-18 14:48 38.295507 -96.126809 250 10503ft 186kts
21-Jul-18 14:49 38.273216 -96.186221 252 10503ft 185kts
21-Jul-18 14:50 38.251255 -96.245654 252 10503ft 186kts
21-Jul-18 14:51 38.229262 -96.305035 252 10503ft 186kts
21-Jul-18 14:52 38.207248 -96.364369 252 10507ft 186kts
21-Jul-18 14:53 38.185169 -96.423743 252 10503ft 186kts
21-Jul-18 14:54 38.163082 -96.483028 252 10504ft 186kts
21-Jul-18 14:55 38.140857 -96.542571 252 10503ft 186kts
21-Jul-18 14:56 38.118703 -96.601807 252 10503ft 186kts
21-Jul-18 14:57 38.096610 -96.660771 251 10504ft 186kts
21-Jul-18 14:58 38.074342 -96.720063 251 10505ft 186kts
21-Jul-18 14:59 38.051927 -96.779647 251 10506ft 186kts
21-Jul-18 15:00 38.029640 -96.838761 251 10532ft 185kts
21-Jul-18 15:01 38.007420 -96.897624 250 10532ft 184kts
21-Jul-18 15:02 37.985560 -96.955337 249 10504ft 178kts
21-Jul-18 15:03 37.964413 -97.011077 249 10518ft 173kts
21-Jul-18 15:04 37.943614 -97.065872 249 10530ft 173kts
21-Jul-18 15:05 37.922654 -97.120983 249 10530ft 174kts
21-Jul-18 15:06 37.901623 -97.176165 249 10530ft 174kts
21-Jul-18 15:07 37.880952 -97.230300 249 10528ft 173kts
21-Jul-18 15:08 37.859957 -97.285201 249 10526ft 173kts
21-Jul-18 15:09 37.839143 -97.339412 249 10527ft 173kts
21-Jul-18 15:10 37.818402 -97.393372 249 10525ft 173kts
21-Jul-18 15:11 37.797550 -97.447589 249 10519ft 173kts
21-Jul-18 15:12 37.776749 -97.501724 249 10472ft 174kts
21-Jul-18 15:13 37.755678 -97.556375 249 10470ft 173kts
21-Jul-18 15:14 37.725326 -97.603309 225 10472ft 180kts
21-Jul-18 15:15 37.686329 -97.643063 225 10472ft 180kts
21-Jul-18 15:16 37.647739 -97.682043 224 10475ft 181kts
21-Jul-18 15:17 37.609048 -97.721024 224 10477ft 181kts
21-Jul-18 15:18 37.569631 -97.760674 224 10476ft 182kts
21-Jul-18 15:19 37.531771 -97.798707 224 10476ft 182kts
21-Jul-18 15:20 37.492513 -97.838092 224 10476ft 182kts
21-Jul-18 15:21 37.453362 -97.877314 224 10476ft 182kts
21-Jul-18 15:22 37.413753 -97.916941 224 10476ft 182kts
21-Jul-18 15:23 37.374255 -97.956402 224 10476ft 182kts
21-Jul-18 15:24 37.334658 -97.995906 224 10476ft 182kts
21-Jul-18 15:25 37.295316 -98.035102 224 10501ft 181kts
21-Jul-18 15:26 37.255753 -98.074470 224 10509ft 182kts
21-Jul-18 15:27 37.216244 -98.113721 224 10502ft 181kts
21-Jul-18 15:28 37.176833 -98.152823 224 10502ft 181kts
21-Jul-18 15:29 37.145936 -98.198719 244 10502ft 175kts
21-Jul-18 15:30 37.121297 -98.251257 244 10502ft 175kts
21-Jul-18 15:31 37.096793 -98.303753 244 10502ft 175kts
21-Jul-18 15:32 37.072262 -98.356274 244 10501ft 174kts
21-Jul-18 15:33 37.047701 -98.408782 244 10502ft 175kts
21-Jul-18 15:34 37.023147 -98.461185 244 10502ft 174kts
21-Jul-18 15:35 36.998608 -98.513456 244 10501ft 174kts
21-Jul-18 15:36 36.974182 -98.565443 245 10501ft 174kts
21-Jul-18 15:37 36.949777 -98.617353 244 10479ft 175kts
21-Jul-18 15:38 36.925409 -98.669032 244 10478ft 175kts
21-Jul-18 15:39 36.900793 -98.721172 243 10478ft 175kts
21-Jul-18 15:40 36.876322 -98.772918 244 10476ft 175kts
21-Jul-18 15:41 36.851686 -98.824932 244 10476ft 174kts
21-Jul-18 15:42 36.826950 -98.877075 243 10475ft 174kts
21-Jul-18 15:43 36.802323 -98.928888 243 10475ft 174kts
21-Jul-18 15:44 36.777553 -98.980930 243 10475ft 174kts
21-Jul-18 15:45 36.752809 -99.032846 243 10474ft 174kts
21-Jul-18 15:46 36.728043 -99.084721 243 10474ft 174kts
21-Jul-18 15:47 36.703333 -99.136402 243 10475ft 174kts
21-Jul-18 15:48 36.678595 -99.188058 243 10474ft 174kts
21-Jul-18 15:49 36.653816 -99.239735 243 10474ft 173kts
21-Jul-18 15:50 36.628981 -99.291436 243 10474ft 174kts
21-Jul-18 15:51 36.604153 -99.343047 244 10474ft 174kts
21-Jul-18 15:52 36.579484 -99.394241 243 10496ft 173kts
21-Jul-18 15:53 36.554672 -99.445656 243 10490ft 174kts
21-Jul-18 15:54 36.530146 -99.496404 243 10489ft 173kts
21-Jul-18 15:55 36.505237 -99.547689 242 10491ft 174kts
21-Jul-18 15:56 36.478121 -99.597349 238 10491ft 174kts
21-Jul-18 15:57 36.453792 -99.648404 248 10490ft 172kts
21-Jul-18 15:58 36.430759 -99.700465 243 10494ft 174kts
21-Jul-18 15:59 36.405974 -99.752137 243 10494ft 174kts
21-Jul-18 16:00 36.381023 -99.803399 242 10492ft 174kts
21-Jul-18 16:01 36.355716 -99.855230 242 10468ft 175kts
21-Jul-18 16:02 36.328446 -99.905542 237 10466ft 176kts
21-Jul-18 16:03 36.299408 -99.954376 237 10467ft 176kts
21-Jul-18 16:04 36.270511 -100.002919 237 10459ft 175kts
21-Jul-18 16:05 36.241445 -100.051666 237 10439ft 176kts
21-Jul-18 16:06 36.212463 -100.100216 237 10439ft 175kts
21-Jul-18 16:07 36.183521 -100.148639 237 10441ft 176kts
21-Jul-18 16:08 36.154596 -100.196915 237 10466ft 175kts
21-Jul-18 16:09 36.126404 -100.243946 236 10439ft 176kts
21-Jul-18 16:10 36.097688 -100.291836 232 10437ft 172kts
21-Jul-18 16:11 36.072386 -100.333913 229 10437ft 174kts
21-Jul-18 16:12 36.042924 -100.382801 229 10438ft 183kts
21-Jul-18 16:13 36.012151 -100.433879 229 10440ft 190kts
21-Jul-18 16:14 35.980836 -100.485770 228 10440ft 188kts
21-Jul-18 16:15 35.950291 -100.536257 230 10436ft 180kts
21-Jul-18 16:16 35.920462 -100.585476 232 10434ft 177kts
21-Jul-18 16:17 35.891591 -100.633106 229 10438ft 174kts
21-Jul-18 16:18 35.862384 -100.680958 227 10439ft 179kts
21-Jul-18 16:19 35.831995 -100.730876 227 10435ft 187kts
21-Jul-18 16:20 35.800541 -100.782832 229 10442ft 191kts
21-Jul-18 16:21 35.768713 -100.835060 233 10466ft 189kts
21-Jul-18 16:22 35.737448 -100.886312 232 10466ft 186kts
21-Jul-18 16:23 35.706942 -100.936196 232 10469ft 186kts
21-Jul-18 16:24 35.675956 -100.986785 232 10466ft 186kts
21-Jul-18 16:25 35.645304 -101.036756 233 10461ft 185kts
21-Jul-18 16:26 35.614227 -101.087347 232 10465ft 185kts
21-Jul-18 16:27 35.583409 -101.137404 234 10518ft 186kts
21-Jul-18 16:28 35.552036 -101.188408 231 10514ft 194kts
21-Jul-18 16:29 35.519553 -101.241092 229 10520ft 188kts
21-Jul-18 16:30 35.491023 -101.287317 228 10472ft 161kts
21-Jul-18 16:31 35.462058 -101.333971 229 10465ft 179kts
21-Jul-18 16:32 35.431011 -101.384072 229 10466ft 188kts
21-Jul-18 16:33 35.399179 -101.435365 231 10438ft 190kts
21-Jul-18 16:34 35.367478 -101.486398 230 10439ft 187kts
21-Jul-18 16:35 35.336191 -101.536682 231 10437ft 186kts
21-Jul-18 16:36 35.304945 -101.586820 231 10438ft 186kts
21-Jul-18 16:37 35.274339 -101.635892 229 10487ft 181kts
21-Jul-18 16:38 35.244214 -101.684065 229 10488ft 181kts
21-Jul-18 16:39 35.198792 -101.700790 185 10493ft 177kts
21-Jul-18 16:40 35.149815 -101.705556 184 10489ft 176kts
21-Jul-18 16:41 35.101156 -101.709559 184 10490ft 176kts
21-Jul-18 16:42 35.053076 -101.713424 184 10491ft 177kts
21-Jul-18 16:43 35.005635 -101.717222 184 10490ft 177kts
21-Jul-18 16:44 34.958073 -101.721021 184 10493ft 176kts
21-Jul-18 16:45 34.909141 -101.724939 184 10489ft 177kts
21-Jul-18 16:46 34.860661 -101.728801 183 10497ft 177kts
21-Jul-18 16:47 34.811505 -101.732729 184 10494ft 177kts
21-Jul-18 16:48 34.762998 -101.736584 184 10493ft 177kts
21-Jul-18 16:49 34.723487 -101.739716 184 10493ft 177kts
21-Jul-18 16:50 34.675258 -101.743555 184 10494ft 177kts
21-Jul-18 16:51 34.626067 -101.747455 184 10494ft 177kts
21-Jul-18 16:52 34.576662 -101.751382 182 10467ft 181kts
21-Jul-18 16:53 34.525974 -101.755387 182 10465ft 186kts
21-Jul-18 16:54 34.474295 -101.759473 182 10462ft 188kts
21-Jul-18 16:55 34.422354 -101.763576 182 10463ft 188kts
21-Jul-18 16:56 34.370163 -101.767688 182 10465ft 189kts
21-Jul-18 16:57 34.318092 -101.771788 182 10465ft 189kts
21-Jul-18 16:58 34.265791 -101.775899 181 10467ft 188kts
21-Jul-18 16:59 34.213761 -101.779987 182 10501ft 188kts
21-Jul-18 17:00 34.161525 -101.784088 182 10504ft 189kts
21-Jul-18 17:01 34.109154 -101.788277 182 10501ft 189kts
21-Jul-18 17:02 34.063787 -101.811589 236 10501ft 193kts
21-Jul-18 17:03 34.036586 -101.866860 237 10479ft 178kts
21-Jul-18 17:04 34.011038 -101.919131 237 9241ft 184kts
21-Jul-18 17:05 33.986547 -101.969250 237 8536ft 161kts
21-Jul-18 17:06 33.963250 -102.016603 236 8043ft 180kts
21-Jul-18 17:07 33.929530 -102.058050 166 7445ft 187kts
21-Jul-18 17:08 33.908219 -102.004585 117 6855ft 183kts
21-Jul-18 17:09 33.886940 -101.951601 117 6303ft 175kts
21-Jul-18 17:10 33.865787 -101.898911 117 5767ft 173kts
21-Jul-18 17:11 33.844776 -101.846695 117 5237ft 173kts
21-Jul-18 17:12 33.807554 -101.829998 177 5417ft 128kts
21-Jul-18 17:13 33.776120 -101.829687 178 4940ft 108kts
21-Jul-18 17:14 33.757773 -101.830511 204 4227ft 117kts
21-Jul-18 17:15 33.728635 -101.829474 180 4049ft 102kts
21-Jul-18 17:16 33.702885 -101.829506 183 3612ft 85kts
21-Jul-18 17:17 33.681643 -101.829056 175 3290ft 69kts
21-Jul-18 17:18 33.673973 -101.831441 267 3264ft 14kts
21-Jul-18 17:19 33.673112 -101.832693 182 3263ft 0kts
21-Jul-18 17:20 33.673112 -101.832693 182 3263ft 0kts

Navigation Log

Ident Type
Flight plan parsing failed, navigation log unavailable